Wileyville, West Virginia
Current Conditions -  °F | °C
As of 6:53 PM on Sunday 25 Jan 2015 (Local Time) from KCKB Reporting Station
Haze Haze  
Wind Chill: 32°   Ceiling: Unl
Heat Index: 36°   Visibility: 3mi
Dew Point: 35°   Wind: 5mph
Humidity: 97%   Direction: 30°NNE
Pressure: 29.75"   Gusts: NA
Location:  39.63°N, 80.67°W
Report Text: KCKB 252353Z 03004KT 3SM BR CLR 02/02 A2975 RMK AO2 SLP077 60000 T00220017 10056 20022 53001
Loading
Personal Weather Stations






























Interactive Weather Map New forecast layout! Learn more

10-Day Weather Forecast

Advertisements
Track Severe Weather on mobile